Time;durP1;ratioP1;P1;durP2;ratioP2;P2;SDS_P1;SDS_P2;PMS_P1;PMS_P2;Temp;Humidity;BMP_temperature;BMP_pressure;BME280_temperature;BME280_humidity;BME280_pressure;Samples;Min_cycle;Max_cycle;Signal;HPM_P1;HPM_P2
2023/06/06 00:01:03;;;;;;;28.50;25.60;;;;;;;15.04;100.00;96309.22;5010681;28;104753;-61
2023/06/06 00:03:31;;;;;;;28.17;25.37;;;;;;;15.04;100.00;96306.56;5009832;28;103930;-61
2023/06/06 00:05:59;;;;;;;28.27;25.33;;;;;;;15.03;100.00;96307.59;5011902;28;102006;-61
2023/06/06 00:08:28;;;;;;;28.23;25.33;;;;;;;15.04;100.00;96306.56;5010794;28;105064;-61
2023/06/06 00:10:54;;;;;;;29.20;26.23;;;;;;;15.05;100.00;96306.25;5011402;28;102688;-61
2023/06/06 00:13:21;;;;;;;29.80;26.90;;;;;;;15.06;100.00;96307.06;5011950;28;101804;-61
2023/06/06 00:15:48;;;;;;;29.83;26.83;;;;;;;14.99;100.00;96306.59;5010338;28;105306;-61
2023/06/06 00:18:16;;;;;;;29.93;26.83;;;;;;;14.95;100.00;96303.69;5013162;28;104050;-61
2023/06/06 00:20:44;;;;;;;30.20;27.00;;;;;;;14.97;100.00;96303.38;5010273;28;103986;-61
2023/06/06 00:23:12;;;;;;;29.63;26.63;;;;;;;15.02;100.00;96306.84;5009998;28;104959;-61
2023/06/06 00:25:39;;;;;;;32.27;28.67;;;;;;;15.05;100.00;96310.81;5010296;28;101992;-61
2023/06/06 00:28:06;;;;;;;29.97;26.80;;;;;;;15.11;100.00;96307.84;5010477;28;104996;-61
2023/06/06 00:30:32;;;;;;;30.87;27.43;;;;;;;15.10;100.00;96310.78;5009473;28;103934;-61
2023/06/06 00:32:59;;;;;;;30.83;27.53;;;;;;;15.12;100.00;96300.59;5010101;28;101927;-61
2023/06/06 00:35:26;;;;;;;32.67;29.27;;;;;;;15.13;100.00;96299.50;5010263;28;104726;-61
2023/06/06 00:37:55;;;;;;;31.30;28.10;;;;;;;15.15;100.00;96294.69;5009496;28;105207;-61
2023/06/06 00:40:21;;;;;;;32.30;28.80;;;;;;;15.05;100.00;96292.06;5013252;28;101891;-61
2023/06/06 00:42:50;;;;;;;31.33;27.80;;;;;;;15.08;100.00;96296.84;5009377;28;103917;-61
2023/06/06 00:45:17;;;;;;;30.77;27.57;;;;;;;15.04;100.00;96293.16;5009242;28;102385;-61
2023/06/06 00:47:45;;;;;;;30.13;26.97;;;;;;;15.03;100.00;96291.53;5009555;28;104997;-61
2023/06/06 00:50:14;;;;;;;31.80;28.57;;;;;;;14.97;100.00;96300.69;5008979;28;105141;-61
2023/06/06 00:52:45;;;;;;;31.43;28.07;;;;;;;14.96;100.00;96299.91;5009603;28;101897;-61
2023/06/06 00:55:15;;;;;;;30.43;27.20;;;;;;;14.97;100.00;96301.50;5009842;28;105208;-61
2023/06/06 00:57:43;;;;;;;29.97;26.77;;;;;;;15.05;100.00;96303.56;5009319;28;103975;-61
2023/06/06 01:00:12;;;;;;;30.43;27.33;;;;;;;15.11;100.00;96304.34;5009506;28;101858;-61
2023/06/06 01:02:43;;;;;;;27.23;24.53;;;;;;;15.19;100.00;96298.38;5012446;28;105924;-61
2023/06/06 01:05:11;;;;;;;27.30;24.57;;;;;;;15.25;100.00;96299.94;5009503;28;102184;-61
2023/06/06 01:07:38;;;;;;;29.97;26.93;;;;;;;15.19;100.00;96303.72;5009764;28;104656;-61
2023/06/06 01:10:08;;;;;;;28.93;25.97;;;;;;;15.23;100.00;96302.91;5008632;28;105624;-61
2023/06/06 01:12:48;;;;;;;29.47;26.47;;;;;;;15.32;100.00;96303.88;5009501;28;101985;-61
2023/06/06 01:15:19;;;;;;;26.93;24.20;;;;;;;15.37;100.00;96303.09;5009652;28;105126;-61
2023/06/06 01:17:47;;;;;;;28.27;25.37;;;;;;;15.40;100.00;96305.19;5008996;28;105404;-61
2023/06/06 01:20:15;;;;;;;24.80;22.40;;;;;;;15.45;100.00;96299.78;5009469;28;101922;-61
2023/06/06 01:22:44;;;;;;;25.80;23.20;;;;;;;15.50;100.00;96297.06;5009184;28;104829;-61
2023/06/06 01:25:12;;;;;;;28.17;25.23;;;;;;;15.57;100.00;96292.16;5011969;28;102046;-61
2023/06/06 01:27:39;;;;;;;24.57;22.10;;;;;;;15.55;100.00;96294.31;5009522;28;105481;-61
2023/06/06 01:30:10;;;;;;;27.80;25.10;;;;;;;15.57;100.00;96297.50;5008933;28;105154;-61
2023/06/06 01:32:46;;;;;;;27.60;24.90;;;;;;;15.50;100.00;96302.41;5009198;28;101906;-61
2023/06/06 01:35:19;;;;;;;28.27;25.53;;;;;;;15.49;100.00;96296.25;5008943;28;105279;-61
2023/06/06 01:37:53;;;;;;;27.53;24.77;;;;;;;15.42;100.00;96295.78;5008580;28;105811;-61
2023/06/06 01:40:24;;;;;;;26.33;23.60;;;;;;;15.17;100.00;96303.22;5009130;28;101886;-61
2023/06/06 01:42:51;;;;;;;26.70;24.00;;;;;;;15.14;100.00;96312.63;5009282;28;105110;-61
2023/06/06 01:45:31;;;;;;;26.67;24.07;;;;;;;15.13;100.00;96300.31;5011078;28;105096;-61
2023/06/06 01:48:00;;;;;;;27.53;24.60;;;;;;;14.94;100.00;96302.06;5010276;28;102284;-61
2023/06/06 01:50:27;;;;;;;29.47;26.47;;;;;;;14.90;100.00;96308.25;5009171;28;102599;-61
2023/06/06 01:52:56;;;;;;;28.83;24.57;;;;;;;14.90;100.00;96313.59;5008630;28;101898;-61
2023/06/06 01:55:23;;;;;;;28.60;25.40;;;;;;;14.89;100.00;96309.34;5010200;28;102289;-61
2023/06/06 01:57:50;;;;;;;26.30;23.60;;;;;;;14.95;100.00;96308.22;5008337;28;105548;-61
2023/06/06 02:00:19;;;;;;;27.07;24.33;;;;;;;14.94;100.00;96309.31;5008590;28;101949;-61
2023/06/06 02:02:49;;;;;;;26.83;24.13;;;;;;;15.09;100.00;96306.53;5008829;28;105245;-61
2023/06/06 02:05:18;;;;;;;27.73;24.93;;;;;;;15.06;100.00;96320.47;5009513;28;102671;-61
2023/06/06 02:07:49;;;;;;;27.10;24.33;;;;;;;15.15;100.00;96313.44;5012271;28;101920;-61
2023/06/06 02:10:17;;;;;;;28.53;25.63;;;;;;;15.19;100.00;96312.56;5008063;28;105437;-61
2023/06/06 02:12:44;;;;;;;27.77;24.97;;;;;;;15.21;100.00;96310.41;5009872;28;101977;-61
2023/06/06 02:15:13;;;;;;;27.23;24.37;;;;;;;15.20;100.00;96308.03;5010034;28;102443;-61
2023/06/06 02:17:40;;;;;;;28.00;25.00;;;;;;;15.23;100.00;96308.25;5007938;28;105998;-61
2023/06/06 02:20:09;;;;;;;27.67;24.77;;;;;;;15.30;100.00;96310.59;5008608;28;102040;-61
2023/06/06 02:22:36;;;;;;;28.83;25.93;;;;;;;15.29;100.00;96311.69;5010004;28;102105;-61
2023/06/06 02:25:03;;;;;;;27.23;24.50;;;;;;;15.31;100.00;96306.88;5009053;28;103094;-61
2023/06/06 02:27:33;;;;;;;27.73;24.93;;;;;;;15.29;100.00;96311.69;5010011;28;102052;-61
2023/06/06 02:30:00;;;;;;;29.70;26.57;;;;;;;15.14;100.00;96315.28;5011312;28;104856;-61
2023/06/06 02:32:29;;;;;;;30.03;26.93;;;;;;;15.15;100.00;96316.09;5009807;28;102074;-61
2023/06/06 02:34:59;;;;;;;29.20;26.07;;;;;;;15.18;100.00;96318.22;5008121;28;104766;-61
2023/06/06 02:37:26;;;;;;;28.37;25.10;;;;;;;15.20;100.00;96313.38;5007715;28;105679;-61
2023/06/06 02:39:54;;;;;;;29.00;25.97;;;;;;;15.23;100.00;96318.16;5008394;28;102208;-61
2023/06/06 02:42:20;;;;;;;28.40;25.30;;;;;;;15.23;100.00;96310.13;5008313;28;105071;-61
2023/06/06 02:44:49;;;;;;;28.97;26.07;;;;;;;15.21;100.00;96312.31;5006720;28;105268;-61
2023/06/06 02:47:16;;;;;;;30.40;27.30;;;;;;;15.25;100.00;96310.63;5008032;28;101937;-61
2023/06/06 02:49:43;;;;;;;27.93;24.93;;;;;;;15.32;100.00;96311.13;5008232;28;104915;-61
2023/06/06 02:52:10;;;;;;;29.67;26.57;;;;;;;15.26;100.00;96307.69;5011002;28;105620;-61
2023/06/06 02:54:37;;;;;;;31.17;27.93;;;;;;;15.21;100.00;96310.41;5007844;28;105016;-61
2023/06/06 02:57:04;;;;;;;32.00;28.60;;;;;;;15.23;100.00;96312.81;5007073;28;105014;-61
2023/06/06 02:59:30;;;;;;;31.23;28.00;;;;;;;15.24;100.00;96311.72;5007997;28;101885;-61
2023/06/06 03:01:59;;;;;;;30.20;27.20;;;;;;;15.29;100.00;96311.69;5008160;28;102375;-61
2023/06/06 03:04:26;;;;;;;32.57;29.13;;;;;;;15.31;100.00;96314.91;5007088;28;105792;-61
2023/06/06 03:06:53;;;;;;;31.90;28.53;;;;;;;15.21;100.00;96306.94;5009520;28;102049;-61
2023/06/06 03:09:21;;;;;;;29.00;26.10;;;;;;;15.22;100.00;96301.31;5007992;28;105279;-61
2023/06/06 03:11:48;;;;;;;31.40;28.00;;;;;;;15.15;100.00;96300.81;5007286;28;105344;-61
2023/06/06 03:14:16;;;;;;;31.33;28.07;;;;;;;15.15;100.00;96300.81;5011181;28;101915;-61
2023/06/06 03:16:43;;;;;;;31.83;28.53;;;;;;;15.12;100.00;96301.41;5006762;28;105498;-61
2023/06/06 03:19:13;;;;;;;31.80;28.33;;;;;;;15.12;100.00;96301.41;5007829;28;102127;-61
2023/06/06 03:21:41;;;;;;;31.97;28.50;;;;;;;15.11;100.00;96301.66;5007703;28;105001;-61
2023/06/06 03:24:08;;;;;;;35.20;29.13;;;;;;;15.03;100.00;96300.38;5006890;28;105376;-61
2023/06/06 03:26:36;;;;;;;32.70;29.20;;;;;;;14.98;100.00;96299.63;5007389;28;101829;-61
2023/06/06 03:29:03;;;;;;;32.13;28.73;;;;;;;14.99;100.00;96295.88;5007184;28;104782;-61
2023/06/06 03:31:33;;;;;;;30.90;27.60;;;;;;;15.07;100.00;96296.06;5006959;28;105504;-61
2023/06/06 03:34:01;;;;;;;31.57;27.17;;;;;;;15.06;100.00;96301.72;5010940;28;102004;-61
2023/06/06 03:36:34;;;;;;;30.47;27.07;;;;;;;15.05;100.00;96295.53;5006806;28;104820;-61
2023/06/06 03:39:02;;;;;;;29.63;26.43;;;;;;;15.00;100.00;96300.16;5007548;28;102194;-61
2023/06/06 03:41:30;;;;;;;28.23;25.10;;;;;;;14.92;100.00;96312.25;5007513;28;105414;-61
2023/06/06 03:43:58;;;;;;;26.27;23.47;;;;;;;14.82;100.00;96308.88;5007294;28;103229;-61
2023/06/06 03:46:25;;;;;;;24.33;21.73;;;;;;;14.79;100.00;96312.91;5007184;28;101807;-61
2023/06/06 03:48:52;;;;;;;25.93;23.13;;;;;;;14.87;100.00;96314.19;5007335;28;104894;-61
2023/06/06 03:51:18;;;;;;;27.77;24.77;;;;;;;14.83;100.00;96313.13;5006752;28;105914;-61
2023/06/06 03:53:47;;;;;;;24.10;21.30;;;;;;;14.79;100.00;96309.41;5007092;28;101957;-61
2023/06/06 03:56:15;;;;;;;22.90;20.50;;;;;;;14.79;100.00;96306.72;5010238;28;105116;-61
2023/06/06 03:58:43;;;;;;;23.40;20.93;;;;;;;14.81;100.00;96309.91;5007034;28;101815;-61
2023/06/06 04:01:11;;;;;;;19.03;17.00;;;;;;;14.83;100.00;96305.09;5007063;28;104821;-61
2023/06/06 04:03:38;;;;;;;18.93;16.73;;;;;;;14.81;100.00;96313.41;5006579;28;103892;-61
2023/06/06 04:06:07;;;;;;;16.60;14.70;;;;;;;14.83;100.00;96305.88;5006768;28;102181;-61
2023/06/06 04:08:34;;;;;;;15.43;13.83;;;;;;;14.85;100.00;96308.28;5007162;28;105626;-61
2023/06/06 04:11:03;;;;;;;15.43;13.93;;;;;;;14.85;100.00;96313.66;5006667;28;105527;-61
2023/06/06 04:13:30;;;;;;;14.23;12.83;;;;;;;14.95;100.00;96305.53;5008257;28;101893;-61
2023/06/06 04:15:56;;;;;;;13.70;12.30;;;;;;;14.91;100.00;96315.19;5009967;28;104954;-61
2023/06/06 04:18:23;;;;;;;14.13;12.63;;;;;;;14.97;100.00;96319.44;5013256;28;105461;-61
2023/06/06 04:20:52;;;;;;;15.67;13.70;;;;;;;15.11;100.00;96315.88;5010355;28;105365;-61
2023/06/06 04:23:19;;;;;;;19.30;17.10;;;;;;;15.14;100.00;96317.16;5009838;28;103781;-61
2023/06/06 04:25:46;;;;;;;19.37;17.33;;;;;;;15.12;100.00;96316.66;5010290;28;102032;-61
2023/06/06 04:28:19;;;;;;;17.33;15.53;;;;;;;15.15;100.00;96322.25;5009887;28;103612;-61
2023/06/06 04:30:51;;;;;;;17.43;15.63;;;;;;;15.19;100.00;96322.47;5009657;28;105374;-61
2023/06/06 04:33:19;;;;;;;17.70;15.30;;;;;;;15.24;100.00;96322.44;5010265;28;101910;-61
2023/06/06 04:35:46;;;;;;;15.80;14.20;;;;;;;15.21;100.00;96321.13;5010010;28;105002;-61
2023/06/06 04:38:18;;;;;;;14.33;12.67;;;;;;;15.20;100.00;96318.75;5009447;28;105458;-61
2023/06/06 04:40:50;;;;;;;16.00;14.23;;;;;;;15.18;100.00;96321.69;5013432;28;102002;-61
2023/06/06 04:43:23;;;;;;;13.70;12.30;;;;;;;15.19;100.00;96317.94;4992985;28;105381;-61
2023/06/06 04:45:53;;;;;;;12.80;10.90;;;;;;;15.25;100.00;96310.63;5010024;28;102197;-61
2023/06/06 04:48:20;;;;;;;8.50;7.70;;;;;;;15.22;100.00;96317.38;5011408;28;102289;-61
2023/06/06 04:50:49;;;;;;;9.60;8.77;;;;;;;15.36;100.00;96318.34;5010234;28;105715;-61
2023/06/06 04:53:16;;;;;;;8.27;7.43;;;;;;;15.30;100.00;96319.44;5010642;28;101891;-61
2023/06/06 04:55:43;;;;;;;7.50;6.90;;;;;;;15.25;100.00;96316.00;5012214;28;102826;-61
2023/06/06 04:58:14;;;;;;;7.10;6.50;;;;;;;15.26;100.00;96325.66;5011362;28;103319;-61
2023/06/06 05:00:46;;;;;;;6.20;5.70;;;;;;;15.31;100.00;96329.09;5012442;28;102141;-61
2023/06/06 05:03:18;;;;;;;6.43;5.83;;;;;;;15.30;100.00;96326.66;5015075;28;102870;-61
2023/06/06 05:05:48;;;;;;;6.50;6.00;;;;;;;15.46;100.00;96323.63;5012104;28;101680;-61
2023/06/06 05:08:15;;;;;;;7.47;6.30;;;;;;;15.54;100.00;96325.69;5010761;28;105891;-61
2023/06/06 05:10:42;;;;;;;7.07;6.43;;;;;;;15.44;100.00;96319.63;5011300;28;102666;-61
2023/06/06 05:13:09;;;;;;;6.20;5.70;;;;;;;15.40;100.00;96323.94;5012022;28;102205;-61
2023/06/06 05:15:36;;;;;;;5.90;5.40;;;;;;;15.35;100.00;96326.66;5010438;28;104750;-61
2023/06/06 05:18:05;;;;;;;6.03;5.53;;;;;;;15.44;100.00;96327.66;5011190;28;102949;-61
2023/06/06 05:20:33;;;;;;;5.63;5.23;;;;;;;15.47;100.00;96327.91;5010625;28;101934;-61
2023/06/06 05:23:00;;;;;;;6.20;5.70;;;;;;;15.50;100.00;96329.22;5010498;28;103957;-61
2023/06/06 05:25:27;;;;;;;6.60;6.00;;;;;;;15.67;100.00;96324.22;5011956;28;103790;-61
2023/06/06 05:27:55;;;;;;;7.37;6.67;;;;;;;15.73;100.00;96333.81;5010396;28;105150;-61
2023/06/06 05:30:21;;;;;;;15.17;13.57;;;;;;;15.48;100.00;96342.09;5009632;28;104333;-61
2023/06/06 05:32:49;;;;;;;16.40;14.77;;;;;;;15.41;100.00;96341.63;5009164;28;101903;-61
2023/06/06 05:35:17;;;;;;;15.40;13.77;;;;;;;15.54;100.00;96336.41;5010447;28;103001;-61
2023/06/06 05:37:44;;;;;;;15.73;14.03;;;;;;;15.63;100.00;96341.94;5008687;28;104120;-61
2023/06/06 05:40:11;;;;;;;15.63;14.03;;;;;;;15.63;100.00;96334.72;5008957;28;101856;-61
2023/06/06 05:42:38;;;;;;;14.10;12.70;;;;;;;15.48;100.00;96340.22;5008932;28;105166;-61
2023/06/06 05:45:06;;;;;;;13.97;12.57;;;;;;;15.29;100.00;96338.47;5011706;28;104997;-61
2023/06/06 05:47:33;;;;;;;11.10;10.03;;;;;;;15.31;100.00;96339.00;5008945;28;104892;-61
2023/06/06 05:50:00;;;;;;;11.97;10.87;;;;;;;15.31;100.00;96347.84;5010100;28;102582;-61
2023/06/06 05:52:28;;;;;;;11.20;10.10;;;;;;;15.34;100.00;96344.63;5008929;28;102147;-61
2023/06/06 05:55:02;;;;;;;11.17;9.97;;;;;;;15.40;100.00;96345.38;5008705;28;105554;-61
2023/06/06 05:57:30;;;;;;;9.67;8.70;;;;;;;15.48;100.00;96344.78;5009915;28;102596;-61
2023/06/06 06:00:00;;;;;;;8.60;7.80;;;;;;;15.47;100.00;96345.88;5009596;28;101958;-61
2023/06/06 06:02:28;;;;;;;9.23;8.37;;;;;;;15.56;100.00;96341.47;5009905;28;105143;-61
2023/06/06 06:04:56;;;;;;;8.13;7.37;;;;;;;15.63;100.00;96345.44;5009043;28;105812;-61
2023/06/06 06:07:23;;;;;;;7.90;7.10;;;;;;;15.78;100.00;96347.16;5013264;28;102068;-61
2023/06/06 06:09:52;;;;;;;7.10;6.47;;;;;;;15.70;100.00;96340.53;5009002;28;105279;-61
2023/06/06 06:12:18;;;;;;;7.43;6.70;;;;;;;15.81;100.00;96342.03;5010747;28;101828;-61
2023/06/06 06:14:45;;;;;;;6.50;6.00;;;;;;;15.90;100.00;96347.56;5011119;28;102894;-61
2023/06/06 06:17:12;;;;;;;6.60;6.00;;;;;;;15.82;100.00;96350.88;5008762;28;105280;-61
2023/06/06 06:19:39;;;;;;;6.33;5.83;;;;;;;16.01;100.00;96347.19;5009323;28;101974;-61
2023/06/06 06:22:06;;;;;;;6.67;6.07;;;;;;;15.98;100.00;96355.00;5009316;28;105398;-61
2023/06/06 06:24:33;;;;;;;6.10;5.60;;;;;;;15.95;100.00;96345.66;5008239;28;105252;-61
2023/06/06 06:27:01;;;;;;;7.17;6.47;;;;;;;15.95;100.00;96348.34;5009497;28;101791;-61
2023/06/06 06:29:28;;;;;;;7.10;6.40;;;;;;;16.06;100.00;96349.00;5012215;28;103631;-61
2023/06/06 06:31:54;;;;;;;8.50;7.60;;;;;;;16.11;100.00;96346.25;5009405;28;101895;-61
2023/06/06 06:34:21;;;;;;;7.63;6.93;;;;;;;15.89;100.00;96354.03;5008987;28;104118;-61
2023/06/06 06:36:49;;;;;;;8.03;7.33;;;;;;;15.95;100.00;96355.56;5008479;28;105400;-61
2023/06/06 06:39:18;;;;;;;8.33;7.50;;;;;;;16.07;100.00;96356.78;5009057;28;102014;-62
2023/06/06 06:41:46;;;;;;;11.57;7.60;;;;;;;16.23;100.00;96355.53;5009401;28;104008;-61
2023/06/06 06:44:14;;;;;;;9.53;8.53;;;;;;;15.95;100.00;96348.34;5007596;28;105361;-61
2023/06/06 06:46:41;;;;;;;10.30;9.30;;;;;;;16.13;100.00;96363.69;5009267;28;102101;-61
2023/06/06 06:49:16;;;;;;;9.83;8.43;;;;;;;16.02;100.00;96356.81;5009132;28;104071;-62
2023/06/06 06:51:43;;;;;;;9.53;8.53;;;;;;;16.27;100.00;96361.91;5011992;28;105563;-61
2023/06/06 06:54:12;;;;;;;10.10;9.20;;;;;;;16.39;100.00;96365.03;5008757;28;104910;-61
2023/06/06 06:56:41;;;;;;;14.50;11.00;;;;;;;16.42;100.00;96366.34;5008443;28;105504;-61
2023/06/06 06:59:08;;;;;;;11.40;10.20;;;;;;;16.62;100.00;96364.19;5007931;28;101743;-61
2023/06/06 07:01:38;;;;;;;11.97;10.73;;;;;;;16.48;100.00;96367.88;5007923;28;105453;-62
2023/06/06 07:04:06;;;;;;;11.63;10.53;;;;;;;16.72;100.00;96363.25;5008428;28;102611;-61
2023/06/06 07:06:34;;;;;;;11.27;10.17;;;;;;;17.00;100.00;96365.03;5009100;28;101818;-61
2023/06/06 07:09:04;;;;;;;14.57;12.40;;;;;;;16.89;100.00;96360.88;5009306;28;102317;-62
2023/06/06 07:11:31;;;;;;;14.33;12.37;;;;;;;17.00;100.00;96352.38;5008615;28;102583;-62
2023/06/06 07:13:58;;;;;;;11.63;10.53;;;;;;;16.99;100.00;96360.72;5012631;28;101887;-61
2023/06/06 07:16:25;;;;;;;11.50;10.40;;;;;;;17.13;100.00;96356.22;5008437;28;102764;-61
2023/06/06 07:18:54;;;;;;;12.07;10.93;;;;;;;16.86;100.00;96356.06;5009487;28;101715;-61
2023/06/06 07:21:21;;;;;;;12.07;10.77;;;;;;;16.64;100.00;96356.66;5007780;28;104995;-61
2023/06/06 07:23:48;;;;;;;11.30;10.20;;;;;;;16.69;100.00;96351.22;5007126;28;105639;-61
2023/06/06 07:26:17;;;;;;;10.93;10.03;;;;;;;16.95;100.00;96354.34;5007432;28;101974;-61
2023/06/06 07:28:45;;;;;;;11.13;10.10;;;;;;;16.93;100.00;96356.50;5007572;28;105471;-61
2023/06/06 07:31:12;;;;;;;12.93;11.43;;;;;;;16.92;100.00;96354.91;5006951;28;105778;-61
2023/06/06 07:33:38;;;;;;;11.07;9.97;;;;;;;16.93;100.00;96359.19;5007398;28;101868;-61
2023/06/06 07:36:08;;;;;;;12.93;11.57;;;;;;;16.74;100.00;96347.66;5010342;28;104872;-61
2023/06/06 07:38:35;;;;;;;12.30;11.00;;;;;;;16.69;100.00;96353.09;5007213;28;101880;-61
2023/06/06 07:41:02;;;;;;;11.90;10.80;;;;;;;16.71;100.00;96358.97;5007461;28;104005;-61
2023/06/06 07:43:29;;;;;;;11.80;10.77;;;;;;;16.79;100.00;96345.69;5006642;28;105368;-61
2023/06/06 07:45:56;;;;;;;12.03;10.83;;;;;;;16.95;100.00;96347.06;4990417;28;101940;-61
2023/06/06 07:48:23;;;;;;;12.40;11.10;;;;;;;17.01;100.00;96345.13;5008806;28;105099;-61
2023/06/06 07:50:50;;;;;;;12.27;11.07;;;;;;;17.29;100.00;96347.63;5010106;28;105274;-61
2023/06/06 07:53:18;;;;;;;11.63;10.53;;;;;;;17.37;100.00;96343.44;5010807;28;102019;-61
2023/06/06 07:55:45;;;;;;;12.17;10.97;;;;;;;17.26;100.00;96342.84;5013679;28;104869;-61
2023/06/06 07:58:12;;;;;;;11.83;10.63;;;;;;;17.01;100.00;96345.13;5010428;28;101805;-61
2023/06/06 08:00:40;;;;;;;11.80;10.63;;;;;;;16.88;100.00;96354.69;5010726;28;103679;-61
2023/06/06 08:03:07;;;;;;;11.20;10.20;;;;;;;16.83;100.00;96345.91;5010146;28;104275;-61
2023/06/06 08:05:36;;;;;;;11.80;10.47;;;;;;;16.88;100.00;96351.19;5010576;28;101926;-61
2023/06/06 08:08:05;;;;;;;9.87;8.97;;;;;;;17.44;100.00;96347.41;5010700;28;105362;-61
2023/06/06 08:10:34;;;;;;;10.53;9.53;;;;;;;17.39;100.00;96342.09;5010617;28;105844;-61
2023/06/06 08:13:01;;;;;;;10.10;9.20;;;;;;;17.74;100.00;96338.81;5011591;28;101899;-61
2023/06/06 08:15:28;;;;;;;9.97;9.07;;;;;;;18.05;100.00;96339.84;5011419;28;105715;-61
2023/06/06 08:17:55;;;;;;;10.27;9.27;;;;;;;17.82;100.00;96334.66;5014259;28;105173;-61
2023/06/06 08:20:21;;;;;;;10.37;9.40;;;;;;;17.82;100.00;96335.44;5011012;28;104402;-61
2023/06/06 08:22:49;;;;;;;11.07;9.87;;;;;;;17.76;100.00;96336.63;5010593;28;105299;-61
2023/06/06 08:25:16;;;;;;;9.73;8.83;;;;;;;18.23;100.00;96330.88;5011298;28;101981;-61
2023/06/06 08:27:45;;;;;;;10.13;9.20;;;;;;;18.25;100.00;96327.91;5011326;28;104845;-61
2023/06/06 08:30:12;;;;;;;9.73;8.83;;;;;;;17.83;100.00;96330.88;5010455;28;105310;-61
2023/06/06 08:32:39;;;;;;;9.63;8.70;;;;;;;17.73;100.00;96333.72;5011193;28;101892;-61
2023/06/06 08:35:07;;;;;;;9.37;8.57;;;;;;;17.88;100.00;96328.09;5011076;28;104983;-61
2023/06/06 08:37:34;;;;;;;9.23;8.43;;;;;;;17.89;100.00;96335.88;5010346;28;105692;-61
2023/06/06 08:40:01;;;;;;;9.43;8.17;;;;;;;17.92;100.00;96332.56;5014276;28;101885;-61
2023/06/06 08:42:31;;;;;;;9.20;8.40;;;;;;;18.11;100.00;96327.09;5010367;28;103768;-61
2023/06/06 08:45:01;;;;;;;9.17;8.17;;;;;;;18.91;100.00;96322.72;5010323;28;101999;-61
2023/06/06 08:47:30;;;;;;;8.97;7.57;;;;;;;19.22;100.00;96323.63;5010760;28;105713;-61
2023/06/06 08:49:58;;;;;;;7.20;6.60;;;;;;;18.55;100.00;96333.50;5010131;28;106628;-61
2023/06/06 08:52:28;;;;;;;7.40;6.67;;;;;;;18.29;100.00;96327.00;5010736;28;101902;-61
2023/06/06 08:54:55;;;;;;;7.00;6.37;;;;;;;18.46;100.00;96329.09;5010704;28;105111;-61
2023/06/06 08:57:23;;;;;;;6.77;6.17;;;;;;;19.07;100.00;96335.53;5010252;28;105026;-61
2023/06/06 08:59:50;;;;;;;6.97;6.30;;;;;;;18.99;100.00;96332.78;5009316;28;102010;-61
2023/06/06 09:02:19;;;;;;;6.40;5.90;;;;;;;18.83;100.00;96326.13;5013737;28;103720;-61
2023/06/06 09:04:47;;;;;;;7.40;6.70;;;;;;;18.69;100.00;96326.16;5010357;28;102167;-61
2023/06/06 09:07:15;;;;;;;7.33;6.53;;;;;;;18.88;100.00;96328.72;5012600;28;102607;-61
2023/06/06 09:09:45;;;;;;;8.87;5.60;;;;;;;19.10;100.00;96321.47;5011348;28;102862;-61
2023/06/06 09:12:12;;;;;;;5.93;5.40;;;;;;;19.37;100.00;96317.88;5010770;28;101947;-61
2023/06/06 09:14:39;;;;;;;8.63;6.63;;;;;;;19.02;100.00;96329.47;5011830;28;102552;-61
2023/06/06 09:17:06;;;;;;;7.90;7.10;;;;;;;18.81;100.00;96322.97;5011477;28;102714;-61
2023/06/06 09:19:35;;;;;;;7.73;7.03;;;;;;;18.88;100.00;96329.53;5011893;28;101849;-61
2023/06/06 09:22:07;;;;;;;7.73;7.03;;;;;;;18.97;100.00;96324.97;5011866;28;102891;-61
2023/06/06 09:24:34;;;;;;;6.53;5.93;;;;;;;19.39;100.00;96321.84;5013183;28;105540;-61
2023/06/06 09:27:01;;;;;;;6.27;5.67;;;;;;;19.43;100.00;96320.16;5011761;28;102349;-61
2023/06/06 09:29:28;;;;;;;6.90;6.30;;;;;;;19.35;100.00;96322.78;5011072;28;103172;-61
2023/06/06 09:31:59;;;;;;;6.70;6.10;;;;;;;18.98;100.00;96328.50;5010423;28;101997;-61
2023/06/06 09:34:26;;;;;;;6.50;6.00;;;;;;;19.07;100.00;96330.16;5011707;28;102803;-61
2023/06/06 09:36:55;;;;;;;8.33;7.57;;;;;;;19.35;100.00;96320.88;5009453;28;104045;-61
2023/06/06 09:39:22;;;;;;;8.23;7.43;;;;;;;19.49;100.00;96323.50;5010035;28;101982;-61
2023/06/06 09:41:50;;;;;;;7.97;7.27;;;;;;;19.29;100.00;96321.31;5010204;28;104883;-61
2023/06/06 09:44:21;;;;;;;7.83;7.03;;;;;;;19.81;100.00;96321.31;5009103;28;105564;-61
2023/06/06 09:46:48;;;;;;;7.57;6.80;;;;;;;19.27;100.00;96321.63;5013203;28;101824;-61
2023/06/06 09:49:15;;;;;;;7.10;6.40;;;;;;;19.03;100.00;96328.38;5009444;28;105663;-61
2023/06/06 09:51:43;;;;;;;7.20;6.50;;;;;;;19.27;100.00;96318.13;5011286;28;101859;-61
2023/06/06 09:54:12;;;;;;;7.73;6.80;;;;;;;19.29;100.00;96324.81;5009872;28;106322;-61
2023/06/06 09:56:42;;;;;;;7.97;7.17;;;;;;;19.34;100.00;96323.91;5009193;28;103837;-61
2023/06/06 09:59:11;;;;;;;7.00;6.30;;;;;;;19.35;100.00;96322.78;5010109;28;101943;-61
2023/06/06 10:01:40;;;;;;;6.77;6.17;;;;;;;19.77;100.00;96327.63;5009447;28;105159;-61
2023/06/06 10:04:09;;;;;;;6.47;5.93;;;;;;;19.79;100.00;96325.44;5009210;28;105911;-61
2023/06/06 10:06:38;;;;;;;7.43;6.73;;;;;;;19.64;100.00;96329.34;5012964;28;102090;-61
2023/06/06 10:09:06;;;;;;;7.23;6.53;;;;;;;19.86;100.00;96325.78;5008900;28;105388;-61
2023/06/06 10:11:35;;;;;;;6.63;6.03;;;;;;;19.54;100.00;96334.16;5009156;28;101900;-61
2023/06/06 10:14:04;;;;;;;7.27;6.57;;;;;;;19.92;100.00;96325.34;5009778;28;103694;-61
2023/06/06 10:16:31;;;;;;;7.20;6.50;;;;;;;19.73;100.00;96335.56;5008553;28;104996;-61
2023/06/06 10:18:58;;;;;;;7.00;6.23;;;;;;;20.07;100.00;96326.88;5009533;28;101890;-61
2023/06/06 10:21:26;;;;;;;6.67;6.13;;;;;;;20.40;100.00;96330.81;5009365;28;105534;-61
2023/06/06 10:23:54;;;;;;;7.43;6.20;;;;;;;20.01;100.00;96328.09;5008703;28;105768;-61
2023/06/06 10:26:27;;;;;;;8.10;6.20;;;;;;;20.16;100.00;96335.81;5009493;28;101974;-61
2023/06/06 10:29:02;;;;;;;6.50;5.80;;;;;;;20.09;100.00;96335.44;5012099;28;104918;-61
2023/06/06 10:31:34;;;;;;;6.63;6.13;;;;;;;19.71;100.00;96336.97;5009190;28;102124;-61
2023/06/06 10:34:07;;;;;;;6.23;5.63;;;;;;;19.27;100.00;96337.81;5009451;28;103590;-61
2023/06/06 10:36:44;;;;;;;6.67;6.00;;;;;;;19.69;100.00;96344.59;5008397;28;103865;-61
2023/06/06 10:39:22;;;;;;;7.70;7.00;;;;;;;20.16;100.00;96342.00;5009131;28;101851;-61
2023/06/06 10:41:54;;;;;;;6.70;6.10;;;;;;;20.63;100.00;96340.38;5010455;28;102461;-61
2023/06/06 10:44:35;;;;;;;5.60;5.13;;;;;;;20.46;100.00;96338.47;5007956;28;105454;-61
2023/06/06 10:47:27;;;;;;;5.23;4.83;;;;;;;20.92;100.00;96343.34;5010642;28;101729;-61
2023/06/06 10:50:21;;;;;;;6.53;4.93;;;;;;;21.54;100.00;96340.00;5008888;28;103894;-61
2023/06/06 10:52:58;;;;;;;5.27;4.77;;;;;;;20.38;100.00;96349.25;5012166;28;102045;-61
2023/06/06 10:55:45;;;;;;;4.83;4.43;;;;;;;20.33;100.00;96349.38;5009188;28;105391;-61
2023/06/06 10:58:19;;;;;;;4.80;4.40;;;;;;;20.27;100.00;96334.41;5009868;28;102752;-61
2023/06/06 11:00:49;;;;;;;4.97;4.37;;;;;;;20.75;100.00;96340.56;5010504;28;101891;-61
2023/06/06 11:03:20;;;;;;;4.53;4.13;;;;;;;20.57;100.00;96344.34;5010796;28;102343;-61
2023/06/06 11:06:13;;;;;;;3.80;3.50;;;;;;;20.48;100.00;96340.84;5008265;28;105156;-61
2023/06/06 11:08:45;;;;;;;4.60;4.20;;;;;;;20.57;100.00;96342.47;5009013;28;102195;-61
2023/06/06 11:11:26;;;;;;;3.60;3.30;;;;;;;20.60;100.00;96338.34;5010804;28;102385;-61
2023/06/06 11:13:56;;;;;;;3.70;3.40;;;;;;;21.19;100.00;96334.94;5009607;28;102547;-61